MSC Chiara — H3RT — position and weather

sailwx.info

Track history (hours):
 
Tides and Currents Weather Stations Pressure Air Temp Water Temp Dewpoint Dewpoint Depression Visibility Wind Speed Wind Dir Waves Ship Positions

MSC Chiara

Last reported at 2018-Jan-12 14:58 UTC. Time now 2018-Jan-18 06:21 UTC.
Position S 29°53' E 031°01'.

Length 197 m; draft 7.7 m.

Type: Ship (hazmat cat A). MMSI: 352398000.

Date/timePositionNaut miles runAvg speedWind from/ knotsBaromVisibWave heightAir tempDewpointWater temp
2018-Jan-12 14:58S 29°53' E 031°01'0 0.0
2018-Jan-12 14:27S 29°53' E 031°01'0 0.0
2018-Jan-12 14:00S 29°53' E 031°01'0 0.0
2018-Jan-12 12:30S 29°53' E 031°01'0 0.0
2018-Jan-12 11:59S 29°53' E 031°01'0 0.0
2018-Jan-12 11:29S 29°53' E 031°01'0 0.0
2018-Jan-12 10:59S 29°53' E 031°01'0 0.0
2018-Jan-12 10:29S 29°53' E 031°01'0 0.0
2018-Jan-12 09:58S 29°53' E 031°01'0 0.0
2018-Jan-12 09:28S 29°53' E 031°01'0 0.0
2018-Jan-12 08:55S 29°53' E 031°01'0 0.0
2018-Jan-12 08:28S 29°53' E 031°01'0 0.0
2018-Jan-12 07:55S 29°53' E 031°01'0 0.0
2018-Jan-12 07:30S 29°53' E 031°01'0 0.0
2018-Jan-12 07:00S 29°53' E 031°01'0 0.0
2018-Jan-12 06:30S 29°53' E 031°01'0 0.0
2018-Jan-12 06:00S 29°53' E 031°01'0 0.0
2018-Jan-12 05:30S 29°53' E 031°01'0 0.0
2018-Jan-12 04:59S 29°53' E 031°01'0 0.0
2018-Jan-12 04:29S 29°53' E 031°01'0 0.0
2018-Jan-12 03:59S 29°53' E 031°01'0 0.0
2018-Jan-12 03:29S 29°53' E 031°01'0 0.0
2018-Jan-12 02:58S 29°53' E 031°01'0 0.0
2018-Jan-12 02:16S 29°53' E 031°01'0 0.1
2018-Jan-12 01:58S 29°53' E 031°01'0 0.0
2018-Jan-12 01:28S 29°53' E 031°01'0 0.0
2018-Jan-12 00:58S 29°53' E 031°01'0 0.0
2018-Jan-12 00:30S 29°53' E 031°01'0 0.0
2018-Jan-11 23:57S 29°53' E 031°01'0 0.0
2018-Jan-11 23:27S 29°53' E 031°01'0 0.0
2018-Jan-11 23:00S 29°53' E 031°01'0 0.0
2018-Jan-11 22:29S 29°53' E 031°01'0 0.0
2018-Jan-11 21:59S 29°53' E 031°01'0 0.0
2018-Jan-11 21:29S 29°53' E 031°01'0 0.0
2018-Jan-11 20:59S 29°53' E 031°01'0 0.0
2018-Jan-11 20:29S 29°53' E 031°01'0 0.0
2018-Jan-11 19:58S 29°53' E 031°01'0 0.0
2018-Jan-11 19:28S 29°53' E 031°01'0 0.0
2018-Jan-11 18:58S 29°53' E 031°01'0 0.0
2018-Jan-11 18:28S 29°53' E 031°01'0 0.0
2018-Jan-11 17:58S 29°53' E 031°01'0 0.0
2018-Jan-11 17:30S 29°53' E 031°01'0 0.0
2018-Jan-11 17:00S 29°53' E 031°01'0 0.0
2018-Jan-11 16:30S 29°53' E 031°01'0 0.0
2018-Jan-11 16:00S 29°53' E 031°01'0 0.0
2018-Jan-11 15:29S 29°53' E 031°01'0 0.0
2018-Jan-11 14:59S 29°53' E 031°01'0 0.0
2018-Jan-11 14:29S 29°53' E 031°01'0 0.0
2018-Jan-11 13:56S 29°53' E 031°01'0 0.0
2018-Jan-11 13:29S 29°53' E 031°01'0 0.0
2018-Jan-11 12:58S 29°53' E 031°01'0 0.0
2018-Jan-11 12:28S 29°53' E 031°01'0 0.0
2018-Jan-11 11:58S 29°53' E 031°01'0 0.0
2018-Jan-11 11:28S 29°53' E 031°01'0 0.0
2018-Jan-11 10:57S 29°53' E 031°01'0 0.0
2018-Jan-11 10:30S 29°53' E 031°01'0 0.0
2018-Jan-11 09:57S 29°53' E 031°01'0 0.0
2018-Jan-11 09:27S 29°53' E 031°01'0 0.0
2018-Jan-11 09:00S 29°53' E 031°01'0 0.0
2018-Jan-11 08:29S 29°53' E 031°01'0 0.0
2018-Jan-11 07:59S 29°53' E 031°01'0 0.1
2018-Jan-11 07:30S 29°53' E 031°02'1 2.4
2018-Jan-11 07:00S 29°53' E 031°03'4 8.4
2018-Jan-11 06:30S 29°49' E 031°06'1 2.7
2018-Jan-11 06:00S 29°51' E 031°06'1 2.8
2018-Jan-11 05:30S 29°50' E 031°05'1 2.9
2018-Jan-11 05:00S 29°49' E 031°06'1 2.7
2018-Jan-11 04:30S 29°48' E 031°07'3 6.8
2018-Jan-11 04:00S 29°45' E 031°09'2 4.3
2018-Jan-11 03:30S 29°43' E 031°10'0 0.1
2018-Jan-11 02:57S 29°43' E 031°10'0 0.0
2018-Jan-11 02:21S 29°43' E 031°10'0 0.1
2018-Jan-11 02:00S 29°43' E 031°10'0 0.0
2018-Jan-11 01:26S 29°43' E 031°10'0 0.1
2018-Jan-11 00:56S 29°43' E 031°10'0 0.0
2018-Jan-11 00:29S 29°43' E 031°10'0 0.1
2018-Jan-10 23:59S 29°43' E 031°10'0 0.0
2018-Jan-10 23:28S 29°43' E 031°10'0 0.0
2018-Jan-10 22:58S 29°43' E 031°10'0 0.0
2018-Jan-10 22:28S 29°43' E 031°10'0 0.1
2018-Jan-10 21:58S 29°43' E 031°10'0 0.0
2018-Jan-10 21:28S 29°43' E 031°10'0 0.0
2018-Jan-10 21:00S 29°43' E 031°10'0 0.0
2018-Jan-10 20:30S 29°43' E 031°10'0 0.0
2018-Jan-10 20:00S 29°43' E 031°10'0 0.0
2018-Jan-10 19:30S 29°43' E 031°10'0 0.0
2018-Jan-10 18:59S 29°43' E 031°10'0 0.0
2018-Jan-10 18:29S 29°43' E 031°10'0 0.0
2018-Jan-10 17:59S 29°43' E 031°10'0 0.0
2018-Jan-10 17:29S 29°43' E 031°10'0 0.0
2018-Jan-10 16:59S 29°43' E 031°10'0 0.0
2018-Jan-10 16:28S 29°43' E 031°10'0 0.0
2018-Jan-10 15:58S 29°43' E 031°10'0 0.0
2018-Jan-10 15:28S 29°43' E 031°10'0 0.0
2018-Jan-10 14:58S 29°43' E 031°10'0 0.0
2018-Jan-10 14:28S 29°43' E 031°10'0 0.0
2018-Jan-10 13:57S 29°43' E 031°10'0 0.0
2018-Jan-10 13:27S 29°43' E 031°10'0 0.0
2018-Jan-10 12:57S 29°43' E 031°10'0 0.0
2018-Jan-10 12:30S 29°43' E 031°10'0 0.0
2018-Jan-10 11:56S 29°43' E 031°10'0 0.0
2018-Jan-10 11:29S 29°43' E 031°10'0 0.0
2018-Jan-10 10:56S 29°43' E 031°10'0 0.0
2018-Jan-10 10:29S 29°43' E 031°10'0 0.0
2018-Jan-10 09:59S 29°43' E 031°10'0 0.1
2018-Jan-10 09:28S 29°43' E 031°10'0 0.1
2018-Jan-10 08:58S 29°43' E 031°10'0 0.0
2018-Jan-10 08:07S 29°43' E 031°10'0 0.0
2018-Jan-10 07:58S 29°43' E 031°10'0 0.0
2018-Jan-10 07:25S 29°43' E 031°10'0 0.0
2018-Jan-10 07:00S 29°43' E 031°10'0 0.0
2018-Jan-10 06:30S 29°43' E 031°10'0 0.1
2018-Jan-10 06:00S 29°43' E 031°10'0 0.0
2018-Jan-10 05:30S 29°43' E 031°10'0 0.1
2018-Jan-10 04:59S 29°43' E 031°10'0 0.0
2018-Jan-10 04:29S 29°43' E 031°10'0 0.0
2018-Jan-10 03:59S 29°43' E 031°10'0 0.0
2018-Jan-10 03:29S 29°43' E 031°10'0 0.0
2018-Jan-10 02:59S 29°43' E 031°10'0 0.0
2018-Jan-10 02:19S 29°43' E 031°10'0 0.1
2018-Jan-10 02:00S 29°43' E 031°10'0 0.1
2018-Jan-10 01:30S 29°43' E 031°10'0 0.0
2018-Jan-10 01:00S 29°43' E 031°10'0 0.1
2018-Jan-10 00:30S 29°43' E 031°10'0 0.0
2018-Jan-10 00:00S 29°43' E 031°10'0 0.1
2018-Jan-09 23:30S 29°43' E 031°10'0 0.1
2018-Jan-09 23:00S 29°43' E 031°10'0 0.1
2018-Jan-09 22:30S 29°43' E 031°10'0 0.0
2018-Jan-09 22:00S 29°43' E 031°10'0 0.0
2018-Jan-09 21:30S 29°43' E 031°10'0 0.0
2018-Jan-09 21:00S 29°43' E 031°10'0 0.0
2018-Jan-09 20:30S 29°43' E 031°10'0 0.1
2018-Jan-09 20:00S 29°43' E 031°10'1 1.7
2018-Jan-09 19:30S 29°43' E 031°11'4 7.8
2018-Jan-09 19:00S 29°45' E 031°14'4 7.2
2018-Jan-09 18:30S 29°46' E 031°18'1 1.6
2018-Jan-09 18:00S 29°46' E 031°18'1 1.5
2018-Jan-09 17:30S 29°47' E 031°17'1 1.7
2018-Jan-09 17:00S 29°47' E 031°16'1 1.7
2018-Jan-09 16:30S 29°48' E 031°16'1 1.5
2018-Jan-09 16:00S 29°49' E 031°16'1 1.7
2018-Jan-09 15:30S 29°50' E 031°15'1 1.5
2018-Jan-09 15:00S 29°50' E 031°15'1 1.6
2018-Jan-09 14:30S 29°51' E 031°15'2 1.4
2018-Jan-09 13:14S 29°53' E 031°14'0 1.4
2018-Jan-09 13:00S 29°53' E 031°14'1 1.2
2018-Jan-09 12:30S 29°54' E 031°14'1 1.4
2018-Jan-09 12:00S 29°54' E 031°15'1 1.4
2018-Jan-09 11:30S 29°55' E 031°15'1 1.1
2018-Jan-09 11:00S 29°56' E 031°15'1 1.4
2018-Jan-09 10:30S 29°56' E 031°14'1 1.3
2018-Jan-09 10:00S 29°57' E 031°14'1 1.1
2018-Jan-09 09:30S 29°58' E 031°14'1 1.2
2018-Jan-09 09:00S 29°58' E 031°14'1 1.0
2018-Jan-09 08:30S 29°59' E 031°14'0 0.7
2018-Jan-09 08:00S 29°59' E 031°14'3 5.9
2018-Jan-09 07:30S 29°57' E 031°17'3 5.6
2018-Jan-09 07:00S 29°55' E 031°19'3 5.7
2018-Jan-09 06:30S 29°53' E 031°21'3 5.9
2018-Jan-09 06:00S 29°51' E 031°24'1 2.6
2018-Jan-09 05:30S 29°50' E 031°24'1 1.3
2018-Jan-09 05:00S 29°50' E 031°23'1 1.2
2018-Jan-09 04:30S 29°50' E 031°23'1 1.3
2018-Jan-09 04:00S 29°50' E 031°22'1 1.3
2018-Jan-09 03:30S 29°51' E 031°21'1 1.3
2018-Jan-09 03:00S 29°51' E 031°21'1 1.5
2018-Jan-09 02:22S 29°51' E 031°20'1 1.4
2018-Jan-09 02:00S 29°52' E 031°19'1 1.3
2018-Jan-09 01:30S 29°52' E 031°19'1 1.2
2018-Jan-09 01:00S 29°52' E 031°18'1 1.1
2018-Jan-09 00:30S 29°52' E 031°17'1 1.1
2018-Jan-09 00:00S 29°53' E 031°17'1 1.1
2018-Jan-08 23:30S 29°53' E 031°16'1 1.2
2018-Jan-08 23:00S 29°54' E 031°16'1 1.3
2018-Jan-08 22:30S 29°54' E 031°16'1 1.4
2018-Jan-08 22:00S 29°55' E 031°15'1 1.4
2018-Jan-08 21:30S 29°56' E 031°15'1 1.3
2018-Jan-08 21:00S 29°56' E 031°15'1 1.1
2018-Jan-08 20:30S 29°57' E 031°15'1 1.4
2018-Jan-08 20:00S 29°57' E 031°15'1 1.4
2018-Jan-08 19:30S 29°58' E 031°14'1 1.5
2018-Jan-08 19:00S 29°59' E 031°14'1 1.7
2018-Jan-08 18:30S 29°60' E 031°14'1 1.9
2018-Jan-08 18:00S 30°01' E 031°14'1 1.6
2018-Jan-08 17:30S 30°01' E 031°14'1 1.5
2018-Jan-08 17:00S 30°02' E 031°13'3 6.4
2018-Jan-08 16:30S 29°59' E 031°13'510.0
2018-Jan-08 16:00S 29°54' E 031°13'510.3
2018-Jan-08 15:30S 29°48' E 031°14'5 9.6
2018-Jan-08 15:00S 29°44' E 031°12'3 5.3
2018-Jan-08 14:30S 29°43' E 031°09'0 0.2
2018-Jan-08 13:57S 29°43' E 031°09'0 0.2
2018-Jan-08 13:27S 29°43' E 031°09'0 0.0
2018-Jan-08 12:57S 29°43' E 031°09'0 0.1
2018-Jan-08 12:27S 29°43' E 031°09'0 0.0
2018-Jan-08 11:56S 29°43' E 031°09'0 0.2
2018-Jan-08 11:29S 29°43' E 031°09'0 0.1
2018-Jan-08 10:59S 29°43' E 031°09'0 0.0
2018-Jan-08 10:29S 29°43' E 031°09'0 0.0
2018-Jan-08 09:56S 29°43' E 031°09'0 0.1
2018-Jan-08 09:25S 29°43' E 031°09'0 0.1
2018-Jan-08 08:49S 29°43' E 031°09'0 0.0
2018-Jan-08 08:25S 29°43' E 031°09'0 0.0
2018-Jan-08 07:55S 29°43' E 031°09'0 0.0
2018-Jan-08 07:25S 29°43' E 031°09'0 0.1
2018-Jan-08 07:00S 29°43' E 031°09'0 0.0
2018-Jan-08 06:30S 29°43' E 031°09'0 0.0
2018-Jan-08 06:00S 29°43' E 031°09'0 0.0
2018-Jan-08 05:30S 29°43' E 031°09'0 0.0
2018-Jan-08 04:59S 29°43' E 031°09'0 0.0
2018-Jan-08 04:29S 29°43' E 031°09'0 0.0
2018-Jan-08 03:59S 29°43' E 031°09'0 0.0
2018-Jan-08 03:29S 29°43' E 031°09'0 0.0
2018-Jan-08 02:59S 29°43' E 031°09'0 0.0
2018-Jan-08 02:21S 29°43' E 031°09'0 0.3
2018-Jan-08 02:00S 29°43' E 031°09'1 3.0
2018-Jan-08 01:30S 29°44' E 031°10'510.7
2018-Jan-08 01:00S 29°42' E 031°16'714.1
2018-Jan-08 00:30S 29°38' E 031°22'815.6
2018-Jan-08 00:00S 29°33' E 031°30'815.9
2018-Jan-07 23:30S 29°29' E 031°37'816.4
2018-Jan-07 23:00S 29°24' E 031°45'816.9
2018-Jan-07 22:30S 29°19' E 031°52'816.9
2018-Jan-07 22:00S 29°13' E 031°60'816.3
2018-Jan-07 21:30S 29°08' E 032°07'815.7
2018-Jan-07 21:00S 29°04' E 032°14'815.1
2018-Jan-07 20:30S 28°59' E 032°21'815.7
2018-Jan-07 20:00S 28°53' E 032°27'815.8
2018-Jan-07 19:30S 28°45' E 032°30'1017.1
2018-Jan-07 18:53S 28°37' E 032°38'  
Track history (hours):
 
Tides and Currents Weather Stations Pressure Air Temp Water Temp Dewpoint Dewpoint Depression Visibility Wind Speed Wind Dir Waves Ship Positions

MSC Chiara

Last reported at 2018-Jan-12 14:58 UTC. Time now 2018-Jan-18 06:21 UTC.
Position S 29°53' E 031°01'.

Length 197 m; draft 7.7 m.

Type: Ship (hazmat cat A). MMSI: 352398000.

Date/timePositionNaut miles runAvg speedWind from/ knotsBaromVisibWave heightAir tempDewpointWater temp
2018-Jan-12 14:58S 29°53' E 031°01'0 0.0
2018-Jan-12 14:27S 29°53' E 031°01'0 0.0
2018-Jan-12 14:00S 29°53' E 031°01'0 0.0
2018-Jan-12 12:30S 29°53' E 031°01'0 0.0
2018-Jan-12 11:59S 29°53' E 031°01'0 0.0
2018-Jan-12 11:29S 29°53' E 031°01'0 0.0
2018-Jan-12 10:59S 29°53' E 031°01'0 0.0
2018-Jan-12 10:29S 29°53' E 031°01'0 0.0
2018-Jan-12 09:58S 29°53' E 031°01'0 0.0
2018-Jan-12 09:28S 29°53' E 031°01'0 0.0
2018-Jan-12 08:55S 29°53' E 031°01'0 0.0
2018-Jan-12 08:28S 29°53' E 031°01'0 0.0
2018-Jan-12 07:55S 29°53' E 031°01'0 0.0
2018-Jan-12 07:30S 29°53' E 031°01'0 0.0
2018-Jan-12 07:00S 29°53' E 031°01'0 0.0
2018-Jan-12 06:30S 29°53' E 031°01'0 0.0
2018-Jan-12 06:00S 29°53' E 031°01'0 0.0
2018-Jan-12 05:30S 29°53' E 031°01'0 0.0
2018-Jan-12 04:59S 29°53' E 031°01'0 0.0
2018-Jan-12 04:29S 29°53' E 031°01'0 0.0
2018-Jan-12 03:59S 29°53' E 031°01'0 0.0
2018-Jan-12 03:29S 29°53' E 031°01'0 0.0
2018-Jan-12 02:58S 29°53' E 031°01'0 0.0
2018-Jan-12 02:16S 29°53' E 031°01'0 0.1
2018-Jan-12 01:58S 29°53' E 031°01'0 0.0
2018-Jan-12 01:28S 29°53' E 031°01'0 0.0
2018-Jan-12 00:58S 29°53' E 031°01'0 0.0
2018-Jan-12 00:30S 29°53' E 031°01'0 0.0
2018-Jan-11 23:57S 29°53' E 031°01'0 0.0
2018-Jan-11 23:27S 29°53' E 031°01'0 0.0
2018-Jan-11 23:00S 29°53' E 031°01'0 0.0
2018-Jan-11 22:29S 29°53' E 031°01'0 0.0
2018-Jan-11 21:59S 29°53' E 031°01'0 0.0
2018-Jan-11 21:29S 29°53' E 031°01'0 0.0
2018-Jan-11 20:59S 29°53' E 031°01'0 0.0
2018-Jan-11 20:29S 29°53' E 031°01'0 0.0
2018-Jan-11 19:58S 29°53' E 031°01'0 0.0
2018-Jan-11 19:28S 29°53' E 031°01'0 0.0
2018-Jan-11 18:58S 29°53' E 031°01'0 0.0
2018-Jan-11 18:28S 29°53' E 031°01'0 0.0
2018-Jan-11 17:58S 29°53' E 031°01'0 0.0
2018-Jan-11 17:30S 29°53' E 031°01'0 0.0
2018-Jan-11 17:00S 29°53' E 031°01'0 0.0
2018-Jan-11 16:30S 29°53' E 031°01'0 0.0
2018-Jan-11 16:00S 29°53' E 031°01'0 0.0
2018-Jan-11 15:29S 29°53' E 031°01'0 0.0
2018-Jan-11 14:59S 29°53' E 031°01'0 0.0
2018-Jan-11 14:29S 29°53' E 031°01'0 0.0
2018-Jan-11 13:56S 29°53' E 031°01'0 0.0
2018-Jan-11 13:29S 29°53' E 031°01'0 0.0
2018-Jan-11 12:58S 29°53' E 031°01'0 0.0
2018-Jan-11 12:28S 29°53' E 031°01'0 0.0
2018-Jan-11 11:58S 29°53' E 031°01'0 0.0
2018-Jan-11 11:28S 29°53' E 031°01'0 0.0
2018-Jan-11 10:57S 29°53' E 031°01'0 0.0
2018-Jan-11 10:30S 29°53' E 031°01'0 0.0
2018-Jan-11 09:57S 29°53' E 031°01'0 0.0
2018-Jan-11 09:27S 29°53' E 031°01'0 0.0
2018-Jan-11 09:00S 29°53' E 031°01'0 0.0
2018-Jan-11 08:29S 29°53' E 031°01'0 0.0
2018-Jan-11 07:59S 29°53' E 031°01'0 0.1
2018-Jan-11 07:30S 29°53' E 031°02'1 2.4
2018-Jan-11 07:00S 29°53' E 031°03'4 8.4
2018-Jan-11 06:30S 29°49' E 031°06'1 2.7
2018-Jan-11 06:00S 29°51' E 031°06'1 2.8
2018-Jan-11 05:30S 29°50' E 031°05'1 2.9
2018-Jan-11 05:00S 29°49' E 031°06'1 2.7
2018-Jan-11 04:30S 29°48' E 031°07'3 6.8
2018-Jan-11 04:00S 29°45' E 031°09'2 4.3
2018-Jan-11 03:30S 29°43' E 031°10'0 0.1
2018-Jan-11 02:57S 29°43' E 031°10'0 0.0
2018-Jan-11 02:21S 29°43' E 031°10'0 0.1
2018-Jan-11 02:00S 29°43' E 031°10'0 0.0
2018-Jan-11 01:26S 29°43' E 031°10'0 0.1
2018-Jan-11 00:56S 29°43' E 031°10'0 0.0
2018-Jan-11 00:29S 29°43' E 031°10'0 0.1
2018-Jan-10 23:59S 29°43' E 031°10'0 0.0
2018-Jan-10 23:28S 29°43' E 031°10'0 0.0
2018-Jan-10 22:58S 29°43' E 031°10'0 0.0
2018-Jan-10 22:28S 29°43' E 031°10'0 0.1
2018-Jan-10 21:58S 29°43' E 031°10'0 0.0
2018-Jan-10 21:28S 29°43' E 031°10'0 0.0
2018-Jan-10 21:00S 29°43' E 031°10'0 0.0
2018-Jan-10 20:30S 29°43' E 031°10'0 0.0
2018-Jan-10 20:00S 29°43' E 031°10'0 0.0
2018-Jan-10 19:30S 29°43' E 031°10'0 0.0
2018-Jan-10 18:59S 29°43' E 031°10'0 0.0
2018-Jan-10 18:29S 29°43' E 031°10'0 0.0
2018-Jan-10 17:59S 29°43' E 031°10'0 0.0
2018-Jan-10 17:29S 29°43' E 031°10'0 0.0
2018-Jan-10 16:59S 29°43' E 031°10'0 0.0
2018-Jan-10 16:28S 29°43' E 031°10'0 0.0
2018-Jan-10 15:58S 29°43' E 031°10'0 0.0
2018-Jan-10 15:28S 29°43' E 031°10'0 0.0
2018-Jan-10 14:58S 29°43' E 031°10'0 0.0
2018-Jan-10 14:28S 29°43' E 031°10'0 0.0
2018-Jan-10 13:57S 29°43' E 031°10'0 0.0
2018-Jan-10 13:27S 29°43' E 031°10'0 0.0
2018-Jan-10 12:57S 29°43' E 031°10'0 0.0
2018-Jan-10 12:30S 29°43' E 031°10'0 0.0
2018-Jan-10 11:56S 29°43' E 031°10'0 0.0
2018-Jan-10 11:29S 29°43' E 031°10'0 0.0
2018-Jan-10 10:56S 29°43' E 031°10'0 0.0
2018-Jan-10 10:29S 29°43' E 031°10'0 0.0
2018-Jan-10 09:59S 29°43' E 031°10'0 0.1
2018-Jan-10 09:28S 29°43' E 031°10'0 0.1
2018-Jan-10 08:58S 29°43' E 031°10'0 0.0
2018-Jan-10 08:07S 29°43' E 031°10'0 0.0
2018-Jan-10 07:58S 29°43' E 031°10'0 0.0
2018-Jan-10 07:25S 29°43' E 031°10'0 0.0
2018-Jan-10 07:00S 29°43' E 031°10'0 0.0
2018-Jan-10 06:30S 29°43' E 031°10'0 0.1
2018-Jan-10 06:00S 29°43' E 031°10'0 0.0
2018-Jan-10 05:30S 29°43' E 031°10'0 0.1
2018-Jan-10 04:59S 29°43' E 031°10'0 0.0
2018-Jan-10 04:29S 29°43' E 031°10'0 0.0
2018-Jan-10 03:59S 29°43' E 031°10'0 0.0
2018-Jan-10 03:29S 29°43' E 031°10'0 0.0
2018-Jan-10 02:59S 29°43' E 031°10'0 0.0
2018-Jan-10 02:19S 29°43' E 031°10'0 0.1
2018-Jan-10 02:00S 29°43' E 031°10'0 0.1
2018-Jan-10 01:30S 29°43' E 031°10'0 0.0
2018-Jan-10 01:00S 29°43' E 031°10'0 0.1
2018-Jan-10 00:30S 29°43' E 031°10'0 0.0
2018-Jan-10 00:00S 29°43' E 031°10'0 0.1
2018-Jan-09 23:30S 29°43' E 031°10'0 0.1
2018-Jan-09 23:00S 29°43' E 031°10'0 0.1
2018-Jan-09 22:30S 29°43' E 031°10'0 0.0
2018-Jan-09 22:00S 29°43' E 031°10'0 0.0
2018-Jan-09 21:30S 29°43' E 031°10'0 0.0
2018-Jan-09 21:00S 29°43' E 031°10'0 0.0
2018-Jan-09 20:30S 29°43' E 031°10'0 0.1
2018-Jan-09 20:00S 29°43' E 031°10'1 1.7
2018-Jan-09 19:30S 29°43' E 031°11'4 7.8
2018-Jan-09 19:00S 29°45' E 031°14'4 7.2
2018-Jan-09 18:30S 29°46' E 031°18'1 1.6
2018-Jan-09 18:00S 29°46' E 031°18'1 1.5
2018-Jan-09 17:30S 29°47' E 031°17'1 1.7
2018-Jan-09 17:00S 29°47' E 031°16'1 1.7
2018-Jan-09 16:30S 29°48' E 031°16'1 1.5
2018-Jan-09 16:00S 29°49' E 031°16'1 1.7
2018-Jan-09 15:30S 29°50' E 031°15'1 1.5
2018-Jan-09 15:00S 29°50' E 031°15'1 1.6
2018-Jan-09 14:30S 29°51' E 031°15'2 1.4
2018-Jan-09 13:14S 29°53' E 031°14'0 1.4
2018-Jan-09 13:00S 29°53' E 031°14'1 1.2
2018-Jan-09 12:30S 29°54' E 031°14'1 1.4
2018-Jan-09 12:00S 29°54' E 031°15'1 1.4
2018-Jan-09 11:30S 29°55' E 031°15'1 1.1
2018-Jan-09 11:00S 29°56' E 031°15'1 1.4
2018-Jan-09 10:30S 29°56' E 031°14'1 1.3
2018-Jan-09 10:00S 29°57' E 031°14'1 1.1
2018-Jan-09 09:30S 29°58' E 031°14'1 1.2
2018-Jan-09 09:00S 29°58' E 031°14'1 1.0
2018-Jan-09 08:30S 29°59' E 031°14'0 0.7
2018-Jan-09 08:00S 29°59' E 031°14'3 5.9
2018-Jan-09 07:30S 29°57' E 031°17'3 5.6
2018-Jan-09 07:00S 29°55' E 031°19'3 5.7
2018-Jan-09 06:30S 29°53' E 031°21'3 5.9
2018-Jan-09 06:00S 29°51' E 031°24'1 2.6
2018-Jan-09 05:30S 29°50' E 031°24'1 1.3
2018-Jan-09 05:00S 29°50' E 031°23'1 1.2
2018-Jan-09 04:30S 29°50' E 031°23'1 1.3
2018-Jan-09 04:00S 29°50' E 031°22'1 1.3
2018-Jan-09 03:30S 29°51' E 031°21'1 1.3
2018-Jan-09 03:00S 29°51' E 031°21'1 1.5
2018-Jan-09 02:22S 29°51' E 031°20'1 1.4
2018-Jan-09 02:00S 29°52' E 031°19'1 1.3
2018-Jan-09 01:30S 29°52' E 031°19'1 1.2
2018-Jan-09 01:00S 29°52' E 031°18'1 1.1
2018-Jan-09 00:30S 29°52' E 031°17'1 1.1
2018-Jan-09 00:00S 29°53' E 031°17'1 1.1
2018-Jan-08 23:30S 29°53' E 031°16'1 1.2
2018-Jan-08 23:00S 29°54' E 031°16'1 1.3
2018-Jan-08 22:30S 29°54' E 031°16'1 1.4
2018-Jan-08 22:00S 29°55' E 031°15'1 1.4
2018-Jan-08 21:30S 29°56' E 031°15'1 1.3
2018-Jan-08 21:00S 29°56' E 031°15'1 1.1
2018-Jan-08 20:30S 29°57' E 031°15'1 1.4
2018-Jan-08 20:00S 29°57' E 031°15'1 1.4
2018-Jan-08 19:30S 29°58' E 031°14'1 1.5
2018-Jan-08 19:00S 29°59' E 031°14'1 1.7
2018-Jan-08 18:30S 29°60' E 031°14'1 1.9
2018-Jan-08 18:00S 30°01' E 031°14'1 1.6
2018-Jan-08 17:30S 30°01' E 031°14'1 1.5
2018-Jan-08 17:00S 30°02' E 031°13'3 6.4
2018-Jan-08 16:30S 29°59' E 031°13'510.0
2018-Jan-08 16:00S 29°54' E 031°13'510.3
2018-Jan-08 15:30S 29°48' E 031°14'5 9.6
2018-Jan-08 15:00S 29°44' E 031°12'3 5.3
2018-Jan-08 14:30S 29°43' E 031°09'0 0.2
2018-Jan-08 13:57S 29°43' E 031°09'0 0.2
2018-Jan-08 13:27S 29°43' E 031°09'0 0.0
2018-Jan-08 12:57S 29°43' E 031°09'0 0.1
2018-Jan-08 12:27S 29°43' E 031°09'0 0.0
2018-Jan-08 11:56S 29°43' E 031°09'0 0.2
2018-Jan-08 11:29S 29°43' E 031°09'0 0.1
2018-Jan-08 10:59S 29°43' E 031°09'0 0.0
2018-Jan-08 10:29S 29°43' E 031°09'0 0.0
2018-Jan-08 09:56S 29°43' E 031°09'0 0.1
2018-Jan-08 09:25S 29°43' E 031°09'0 0.1
2018-Jan-08 08:49S 29°43' E 031°09'0 0.0
2018-Jan-08 08:25S 29°43' E 031°09'0 0.0
2018-Jan-08 07:55S 29°43' E 031°09'0 0.0
2018-Jan-08 07:25S 29°43' E 031°09'0 0.1
2018-Jan-08 07:00S 29°43' E 031°09'0 0.0
2018-Jan-08 06:30S 29°43' E 031°09'0 0.0
2018-Jan-08 06:00S 29°43' E 031°09'0 0.0
2018-Jan-08 05:30S 29°43' E 031°09'0 0.0
2018-Jan-08 04:59S 29°43' E 031°09'0 0.0
2018-Jan-08 04:29S 29°43' E 031°09'0 0.0
2018-Jan-08 03:59S 29°43' E 031°09'0 0.0
2018-Jan-08 03:29S 29°43' E 031°09'0 0.0
2018-Jan-08 02:59S 29°43' E 031°09'0 0.0
2018-Jan-08 02:21S 29°43' E 031°09'0 0.3
2018-Jan-08 02:00S 29°43' E 031°09'1 3.0
2018-Jan-08 01:30S 29°44' E 031°10'510.7
2018-Jan-08 01:00S 29°42' E 031°16'714.1
2018-Jan-08 00:30S 29°38' E 031°22'815.6
2018-Jan-08 00:00S 29°33' E 031°30'815.9
2018-Jan-07 23:30S 29°29' E 031°37'816.4
2018-Jan-07 23:00S 29°24' E 031°45'816.9
2018-Jan-07 22:30S 29°19' E 031°52'816.9
2018-Jan-07 22:00S 29°13' E 031°60'816.3
2018-Jan-07 21:30S 29°08' E 032°07'815.7
2018-Jan-07 21:00S 29°04' E 032°14'815.1
2018-Jan-07 20:30S 28°59' E 032°21'815.7
2018-Jan-07 20:00S 28°53' E 032°27'815.8
2018-Jan-07 19:30S 28°45' E 032°30'1017.1
2018-Jan-07 18:53S 28°37' E 032°38'  

Dump ship's entire track history